Terminal Aerodrome Forecast
Issued by NWS

Home | Current Version | Previous Version | Text Only | Print | Product List | Glossary On
Versions: 1 2 3 4 5 6 7 8 9 10 11 12 13 14 15 16 17
000
FTUS45 KRIW 011100
TAFCOD
TAF
KCOD 011140Z 0112/0212 01007KT P6SM VCSH SCT020 OVC035
      TEMPO 0112/0116 6SM -SHRA BKN020
     FM012000 01007KT P6SM VCSH SCT030 BKN050
     FM020100 VRB05KT P6SM SCT080
     FM020400 20006KT P6SM SKC
      AMD LTD TO CLD VIS AND WIND=

USA.gov is the U.S. government's official web portal to all federal, state and local government web resources and services.